Ary, KY

12:46 AM EDT on October 22, 2014 (GMT -0400)
KKYJACKS3 | Change Station
CLOSE
Current Station
Personal Weather Station
Location: Talbert, KY
Elevation: 994 ft
Nearby Weather Stations

Elev 994 ft 37.41 °N, 83.42 °W | Updated 1 minute ago

Overcast
Overcast
47.1 °F
Feels Like 47 °F
N
0.0
Wind Variable Wind from North
Gusts 0.0 mph

Today
High -- | Low -- °F
--% Chance of Precip.
Yesterday
High -- | Low -- °F
Precip. -- in
7:47 AM 6:46 PM
Waning Crescent, 3% visible
Pressure 30.13 in
Visibility 9.0 miles
Clouds Scattered Clouds 1200 ft
Mostly Cloudy 2000 ft
Overcast 2600 ft
Windchill 47 °F
Dew Point 45 °F
Humidity 91%
Rainfall 0.06 in
Snow Depth Not available.
UV 0 out of 12
Pollen 1.70 out of 12
Air Quality Not available.
Flu Activity Sporadic
SPECI KJKL 220443Z AUTO VRB03KT 9SM -RA SCT012 BKN020 OVC026 07/05 A3013 RMK AO2 RAB12 P0001 T00670050

More Conditions Fewer Conditions

Pressure 30.13 in
Visibility 9.0 miles
Clouds Scattered Clouds 1200 ft
Mostly Cloudy 2000 ft
Overcast 2600 ft
Windchill 47 °F
Dew Point 45 °F
Humidity 91%
Rainfall 0.06 in
Snow Depth Not available.
UV 0 out of 12
Pollen 1.70 out of 12
Air Quality Not available.
Flu Activity Sporadic
SPECI KJKL 220443Z AUTO VRB03KT 9SM -RA SCT012 BKN020 OVC026 07/05 A3013 RMK AO2 RAB12 P0001 T00670050

More Conditions Fewer Conditions

10-Day Weather Forecast

Almanac

Astronomy

Oct. 22, 2014 Rise Set
Actual Time 7:47 AM EDT 6:46 PM EDT
Civil Twilight 7:20 AM EDT 7:12 PM EDT
Nautical Twilight 6:50 AM EDT 7:43 PM EDT
Astronomical Twilight 6:19 AM EDT 8:13 PM EDT
Moon 6:29 AM EDT 6:11 PM EDT
Length of Visible Light 11h 52m
Length of Day
10h 59m
Tomorrow will be 2m 14s shorter.
Waning Crescent, 3% of the Moon is Illuminated
Today
Waning Crescent
Oct 23
New
Oct 30
First Quarter
Nov 6
Full
Nov 14
Last Quarter

Today's Extremes

State Highs State Lows

Community

WunderPhotos

Upload Photos

1,763,882 photos uploaded!

Nearby

Snow Depth

Station Depth Elevation
No new snow has been reported.

Earthquake Activity

City Distance Mag. Time & Date
No recent earthquake activity has been reported nearby.
Minimum magnitude displayed is 2.5.

Coastal Water Temperatures

Place Temperature
No Stations Reporting

Nearby Weather Stations